createdAt,value
2022-08-24T00:02:26.152Z,25.45
2022-08-24T00:04:55.794Z,25.55
2022-08-24T00:07:28.209Z,25.63
2022-08-24T00:09:57.159Z,25.70
2022-08-24T00:12:27.524Z,25.77
2022-08-24T00:14:57.472Z,25.74
2022-08-24T00:17:26.749Z,25.71
2022-08-24T00:19:56.310Z,25.68
2022-08-24T00:22:29.548Z,25.73
2022-08-24T00:25:00.343Z,25.76
2022-08-24T00:27:31.225Z,25.81
2022-08-24T00:30:01.794Z,25.83
2022-08-24T00:32:30.088Z,25.84
2022-08-24T00:34:59.528Z,25.88
2022-08-24T00:37:29.995Z,25.85
2022-08-24T00:39:59.436Z,25.77
2022-08-24T00:42:27.852Z,25.79
2022-08-24T00:44:56.037Z,25.78
2022-08-24T00:47:34.229Z,25.80
2022-08-24T00:50:11.290Z,25.82
2022-08-24T00:52:47.824Z,25.75
2022-08-24T00:55:24.109Z,25.75
2022-08-24T00:58:02.688Z,25.72
2022-08-24T01:00:48.879Z,25.67
2022-08-24T01:03:20.978Z,25.61
2022-08-24T01:05:52.654Z,25.54
2022-08-24T01:08:27.666Z,25.52
2022-08-24T01:11:02.055Z,25.49
2022-08-24T01:13:36.014Z,25.49
2022-08-24T01:16:10.073Z,25.50
2022-08-24T01:18:53.040Z,25.48
2022-08-24T01:21:27.148Z,25.64
2022-08-24T01:24:00.764Z,25.37
2022-08-24T01:26:36.475Z,25.32
2022-08-24T01:29:11.831Z,25.35
2022-08-24T01:31:43.845Z,25.39
2022-08-24T01:34:15.171Z,25.44
2022-08-24T01:36:48.647Z,25.42
2022-08-24T01:39:24.614Z,25.44
2022-08-24T01:41:55.419Z,25.47
2022-08-24T01:44:27.930Z,25.49
2022-08-24T01:46:58.828Z,25.55
2022-08-24T01:49:32.744Z,25.54
2022-08-24T01:52:07.264Z,25.58
2022-08-24T01:54:40.234Z,25.56
2022-08-24T01:57:16.984Z,25.59
2022-08-24T01:59:48.853Z,25.63
2022-08-24T02:02:23.465Z,25.66
2022-08-24T02:04:53.377Z,25.68
2022-08-24T02:07:25.699Z,25.68
2022-08-24T02:10:00.185Z,25.72
2022-08-24T02:12:31.732Z,25.70
2022-08-24T02:15:03.497Z,25.70
2022-08-24T02:17:33.984Z,25.64
2022-08-24T02:20:05.511Z,25.64
2022-08-24T02:22:35.690Z,25.65
2022-08-24T02:25:07.735Z,25.64
2022-08-24T02:27:41.504Z,25.66
2022-08-24T02:30:13.218Z,25.67
2022-08-24T02:32:43.853Z,25.60
2022-08-24T02:35:13.303Z,25.55
2022-08-24T02:37:44.332Z,25.49
2022-08-24T02:40:20.222Z,25.52
2022-08-24T02:42:53.744Z,25.52
2022-08-24T02:45:24.292Z,25.52
2022-08-24T02:47:56.288Z,25.54
2022-08-24T02:50:29.220Z,25.44
2022-08-24T02:53:00.074Z,25.41
2022-08-24T02:55:33.128Z,25.37
2022-08-24T02:58:01.888Z,25.38
2022-08-24T03:00:31.530Z,25.43
2022-08-24T03:03:00.747Z,25.46
2022-08-24T03:05:30.667Z,25.46
2022-08-24T03:08:01.117Z,25.48
2022-08-24T03:10:35.323Z,25.50
2022-08-24T03:13:08.211Z,25.48
2022-08-24T03:15:39.204Z,25.50
2022-08-24T03:18:11.778Z,25.49
2022-08-24T03:20:47.428Z,25.52
2022-08-24T03:23:17.532Z,25.52
2022-08-24T03:25:48.603Z,25.54
2022-08-24T03:28:17.146Z,25.54
2022-08-24T03:30:48.352Z,25.50
2022-08-24T03:33:19.265Z,25.42
2022-08-24T03:35:47.389Z,25.40
2022-08-24T03:38:18.472Z,25.38
2022-08-24T03:40:48.805Z,25.37
2022-08-24T03:43:32.690Z,25.40
2022-08-24T03:46:05.006Z,25.40
2022-08-24T03:48:35.079Z,25.43
2022-08-24T03:51:03.753Z,25.42
2022-08-24T03:53:36.801Z,25.44
2022-08-24T03:56:14.899Z,25.46
2022-08-24T03:58:47.225Z,25.44
2022-08-24T04:01:19.631Z,25.43
2022-08-24T04:03:52.426Z,25.42
2022-08-24T04:06:27.034Z,25.41
2022-08-24T04:08:58.549Z,25.40
2022-08-24T04:11:32.570Z,25.41
2022-08-24T04:14:02.744Z,25.36
2022-08-24T04:16:36.346Z,25.32
2022-08-24T04:19:17.410Z,25.17
2022-08-24T04:21:46.703Z,25.03
2022-08-24T04:24:17.278Z,24.99
2022-08-24T04:26:50.794Z,25.03
2022-08-24T04:29:25.084Z,25.02
2022-08-24T04:31:55.180Z,25.05
2022-08-24T04:34:26.204Z,25.04
2022-08-24T04:36:58.416Z,24.97
2022-08-24T04:39:34.184Z,24.93
2022-08-24T04:42:26.626Z,24.95
2022-08-24T04:44:59.454Z,24.89
2022-08-24T04:47:32.661Z,24.84
2022-08-24T04:50:04.307Z,24.86
2022-08-24T04:52:34.324Z,24.89
2022-08-24T04:55:04.730Z,24.94
2022-08-24T04:57:40.462Z,24.99
2022-08-24T05:00:12.774Z,25.02
2022-08-24T05:02:46.774Z,25.07
2022-08-24T05:05:18.395Z,25.08
2022-08-24T05:07:48.617Z,25.09
2022-08-24T05:10:16.863Z,25.06
2022-08-24T05:12:49.775Z,25.04
2022-08-24T05:15:21.032Z,25.04
2022-08-24T05:17:51.584Z,25.07
2022-08-24T05:20:22.526Z,25.02
2022-08-24T05:22:55.797Z,25.02
2022-08-24T05:25:24.418Z,24.99
2022-08-24T05:27:56.237Z,24.97
2022-08-24T05:30:24.360Z,25.00
2022-08-24T05:32:54.725Z,24.99
2022-08-24T05:35:26.095Z,24.99
2022-08-24T05:37:57.344Z,24.95
2022-08-24T05:40:34.020Z,24.91
2022-08-24T05:43:06.050Z,24.80
2022-08-24T05:45:34.497Z,24.79
2022-08-24T05:48:04.797Z,24.68
2022-08-24T05:51:01.934Z,24.66
2022-08-24T05:53:36.336Z,24.62
2022-08-24T05:56:06.816Z,24.51
2022-08-24T05:58:40.132Z,24.56
2022-08-24T06:01:10.370Z,24.58
2022-08-24T06:03:40.062Z,24.63
2022-08-24T06:06:14.002Z,24.69
2022-08-24T06:08:47.017Z,24.71
2022-08-24T06:11:30.340Z,24.90
2022-08-24T06:14:07.201Z,24.79
2022-08-24T06:16:44.391Z,24.84
2022-08-24T06:19:16.941Z,24.83
2022-08-24T06:21:48.267Z,24.74
2022-08-24T06:24:19.747Z,24.78
2022-08-24T06:27:09.463Z,24.84
2022-08-24T06:29:40.054Z,24.87
2022-08-24T06:32:28.606Z,24.96
2022-08-24T06:34:58.399Z,25.01
2022-08-24T06:37:29.380Z,25.07
2022-08-24T06:39:59.067Z,25.00
2022-08-24T06:42:29.351Z,24.98
2022-08-24T06:45:01.656Z,25.20
2022-08-24T06:47:30.290Z,24.97
2022-08-24T06:50:06.513Z,24.89
2022-08-24T06:52:39.759Z,24.94
2022-08-24T06:55:11.007Z,24.99
2022-08-24T06:57:39.375Z,24.98
2022-08-24T07:00:11.288Z,25.01
2022-08-24T07:02:42.589Z,25.08
2022-08-24T07:05:12.034Z,25.13
2022-08-24T07:08:01.339Z,25.18
2022-08-24T07:10:31.559Z,25.17
2022-08-24T07:13:02.272Z,25.14
2022-08-24T07:15:33.571Z,25.15
2022-08-24T07:18:15.964Z,25.21
2022-08-24T07:20:51.340Z,25.16
2022-08-24T07:23:42.107Z,25.14
2022-08-24T07:26:21.225Z,25.12
2022-08-24T07:29:00.251Z,25.09
2022-08-24T07:31:35.628Z,25.11
2022-08-24T07:34:14.362Z,25.08
2022-08-24T07:36:45.032Z,25.06
2022-08-24T07:39:14.780Z,25.05
2022-08-24T07:42:10.886Z,25.05
2022-08-24T07:44:38.058Z,25.14
2022-08-24T07:47:34.320Z,25.26
2022-08-24T07:50:01.135Z,25.36
2022-08-24T07:52:33.113Z,25.42
2022-08-24T07:55:06.682Z,25.49
2022-08-24T07:57:47.651Z,25.58
2022-08-24T08:00:21.516Z,25.66
2022-08-24T08:02:59.420Z,25.73
2022-08-24T08:05:29.363Z,25.78
2022-08-24T08:08:00.867Z,25.82
2022-08-24T08:10:31.921Z,25.84
2022-08-24T08:13:01.052Z,25.86
2022-08-24T08:15:30.891Z,25.91
2022-08-24T08:18:09.807Z,25.94
2022-08-24T08:20:43.861Z,25.97
2022-08-24T08:23:34.497Z,25.97
2022-08-24T08:26:15.678Z,26.05
2022-08-24T08:29:01.098Z,26.03
2022-08-24T08:31:34.621Z,26.02
2022-08-24T08:34:07.490Z,26.07
2022-08-24T08:36:40.570Z,26.06
2022-08-24T08:39:13.465Z,26.10
2022-08-24T08:42:14.477Z,26.19
2022-08-24T08:44:54.263Z,26.20
2022-08-24T08:47:53.263Z,26.21
2022-08-24T08:50:35.812Z,26.19
2022-08-24T08:53:42.544Z,26.20
2022-08-24T08:56:23.779Z,26.22
2022-08-24T08:59:04.193Z,26.25
2022-08-24T09:02:10.717Z,26.30
2022-08-24T09:05:16.153Z,26.32
2022-08-24T09:08:00.409Z,26.34
2022-08-24T09:10:46.621Z,26.35
2022-08-24T09:13:39.319Z,26.38
2022-08-24T09:16:33.624Z,26.43
2022-08-24T09:19:25.954Z,26.43
2022-08-24T09:22:15.292Z,26.48
2022-08-24T09:25:24.795Z,26.52
2022-08-24T09:28:43.774Z,26.55
2022-08-24T09:31:37.922Z,26.58
2022-08-24T09:34:20.493Z,26.60
2022-08-24T09:37:17.555Z,26.64
2022-08-24T09:40:03.562Z,26.65
2022-08-24T09:43:13.428Z,26.69
2022-08-24T09:46:13.898Z,26.67
2022-08-24T09:49:15.347Z,26.70
2022-08-24T09:52:11.266Z,26.71
2022-08-24T09:55:14.163Z,26.73
2022-08-24T09:58:03.803Z,26.73
2022-08-24T10:00:41.967Z,26.74
2022-08-24T10:03:40.288Z,26.78
2022-08-24T10:06:29.988Z,26.79
2022-08-24T10:09:25.197Z,26.85
2022-08-24T10:12:06.424Z,26.87
2022-08-24T10:14:52.941Z,26.90
2022-08-24T10:17:35.842Z,26.94
2022-08-24T10:20:24.081Z,27.00
2022-08-24T10:23:22.119Z,27.02
2022-08-24T10:25:58.198Z,27.02
2022-08-24T10:29:00.922Z,27.06
2022-08-24T10:31:43.834Z,27.06
2022-08-24T10:34:32.532Z,27.11
2022-08-24T10:37:42.319Z,27.19
2022-08-24T10:40:35.113Z,27.22
2022-08-24T10:43:35.938Z,27.25
2022-08-24T10:46:39.799Z,27.33
2022-08-24T10:49:52.182Z,27.38
2022-08-24T10:52:48.897Z,27.43
2022-08-24T10:55:22.455Z,27.45
2022-08-24T10:58:08.314Z,27.46
2022-08-24T11:00:37.917Z,27.45
2022-08-24T11:03:11.145Z,27.49
2022-08-24T11:05:43.701Z,27.53
2022-08-24T11:08:21.579Z,27.61
2022-08-24T11:11:09.253Z,27.68
2022-08-24T11:13:38.999Z,27.70
2022-08-24T11:16:07.767Z,27.74
2022-08-24T11:18:49.653Z,27.78
2022-08-24T11:21:34.909Z,27.81
2022-08-24T11:24:07.161Z,27.77
2022-08-24T11:26:53.603Z,27.84
2022-08-24T11:29:23.230Z,27.83
2022-08-24T11:31:52.781Z,27.87
2022-08-24T11:34:33.269Z,27.91
2022-08-24T11:37:01.522Z,27.87
2022-08-24T11:39:36.190Z,27.91
2022-08-24T11:42:29.224Z,28.00
2022-08-24T11:45:08.840Z,28.14
2022-08-24T11:47:49.668Z,28.35
2022-08-24T11:50:30.606Z,28.50
2022-08-24T11:53:12.070Z,28.54
2022-08-24T11:55:57.178Z,28.66
2022-08-24T11:58:39.732Z,28.84
2022-08-24T12:01:18.805Z,28.93
2022-08-24T12:04:02.455Z,29.05
2022-08-24T12:06:44.250Z,29.24
2022-08-24T12:09:25.839Z,29.43
2022-08-24T12:12:03.734Z,29.49
2022-08-24T12:14:38.375Z,29.49
2022-08-24T12:17:16.336Z,29.56
2022-08-24T12:19:50.361Z,29.54
2022-08-24T12:22:21.105Z,29.58
2022-08-24T12:24:54.647Z,29.65
2022-08-24T12:27:26.686Z,29.63
2022-08-24T12:30:00.430Z,29.63
2022-08-24T12:32:37.640Z,29.65
2022-08-24T12:35:10.216Z,29.62
2022-08-24T12:37:44.495Z,29.60
2022-08-24T12:40:22.961Z,29.74
2022-08-24T12:42:56.241Z,29.96
2022-08-24T12:45:26.025Z,30.23
2022-08-24T12:47:59.942Z,30.41
2022-08-24T12:50:33.344Z,30.58
2022-08-24T12:53:32.190Z,30.64
2022-08-24T12:56:24.080Z,30.77
2022-08-24T12:59:00.310Z,30.98
2022-08-24T13:01:35.761Z,31.18
2022-08-24T13:04:09.257Z,31.17
2022-08-24T13:06:42.394Z,31.10
2022-08-24T13:09:15.122Z,31.07
2022-08-24T13:11:43.647Z,30.80
2022-08-24T13:14:22.209Z,30.66
2022-08-24T13:17:12.622Z,30.63
2022-08-24T13:19:45.728Z,30.72
2022-08-24T13:22:32.056Z,30.96
2022-08-24T13:25:02.932Z,30.91
2022-08-24T13:28:04.201Z,30.90
2022-08-24T13:31:05.914Z,30.84
2022-08-24T13:33:46.460Z,30.75
2022-08-24T13:36:51.684Z,30.63
2022-08-24T13:39:56.659Z,30.52
2022-08-24T13:42:55.562Z,30.50
2022-08-24T13:45:34.224Z,30.67
2022-08-24T13:48:30.064Z,30.90
2022-08-24T13:51:37.961Z,31.13
2022-08-24T13:54:29.748Z,31.25
2022-08-24T13:57:11.810Z,31.32
2022-08-24T14:00:01.281Z,31.34
2022-08-24T14:02:46.947Z,31.48
2022-08-24T14:05:31.785Z,31.90
2022-08-24T14:08:15.253Z,32.19
2022-08-24T14:10:57.446Z,32.42
2022-08-24T14:13:41.185Z,32.37
2022-08-24T14:16:49.543Z,32.27
2022-08-24T14:19:25.276Z,32.09
2022-08-24T14:22:10.384Z,31.90
2022-08-24T14:24:49.320Z,31.70
2022-08-24T14:27:38.633Z,31.59
2022-08-24T14:30:45.536Z,31.50
2022-08-24T14:33:22.910Z,31.42
2022-08-24T14:36:19.398Z,31.36
2022-08-24T14:38:59.707Z,31.23
2022-08-24T14:41:49.384Z,31.19
2022-08-24T14:44:43.129Z,31.07
2022-08-24T14:47:26.851Z,30.95
2022-08-24T14:50:14.985Z,30.85
2022-08-24T14:53:19.965Z,30.76
2022-08-24T14:56:01.191Z,30.62
2022-08-24T14:58:42.083Z,30.51
2022-08-24T15:01:40.745Z,30.49
2022-08-24T15:04:30.703Z,30.40
2022-08-24T15:07:28.592Z,30.38
2022-08-24T15:10:01.899Z,30.34
2022-08-24T15:12:44.484Z,30.38
2022-08-24T15:15:24.127Z,30.36
2022-08-24T15:18:09.671Z,30.38
2022-08-24T15:20:57.311Z,30.40
2022-08-24T15:23:37.474Z,30.38
2022-08-24T15:26:13.631Z,30.49
2022-08-24T15:28:55.202Z,30.96
2022-08-24T15:31:26.141Z,31.49
2022-08-24T15:34:00.775Z,31.87
2022-08-24T15:36:33.268Z,32.27
2022-08-24T15:39:05.255Z,32.52
2022-08-24T15:41:37.987Z,32.82
2022-08-24T15:44:20.416Z,33.06
2022-08-24T15:46:56.479Z,33.28
2022-08-24T15:49:29.460Z,33.42
2022-08-24T15:52:02.876Z,33.52
2022-08-24T15:54:40.925Z,33.64
2022-08-24T15:57:27.693Z,33.75
2022-08-24T16:00:09.527Z,33.90
2022-08-24T16:02:39.479Z,33.95
2022-08-24T16:05:22.156Z,34.12
2022-08-24T16:08:14.339Z,34.23
2022-08-24T16:10:44.905Z,34.24
2022-08-24T16:13:26.903Z,34.33
2022-08-24T16:16:06.179Z,34.34
2022-08-24T16:19:08.544Z,34.30
2022-08-24T16:21:58.550Z,34.27
2022-08-24T16:24:38.456Z,34.08
2022-08-24T16:27:11.701Z,33.84
2022-08-24T16:29:56.285Z,33.73
2022-08-24T16:32:53.748Z,33.58
2022-08-24T16:35:26.954Z,33.41
2022-08-24T16:37:57.393Z,33.39
2022-08-24T16:40:31.917Z,33.12
2022-08-24T16:43:05.179Z,32.92
2022-08-24T16:45:36.178Z,32.74
2022-08-24T16:48:07.399Z,32.54
2022-08-24T16:50:38.400Z,32.36
2022-08-24T16:53:07.330Z,32.17
2022-08-24T16:55:39.884Z,32.05
2022-08-24T16:58:08.659Z,32.03
2022-08-24T17:00:39.984Z,31.78
2022-08-24T17:03:15.059Z,31.65
2022-08-24T17:05:51.092Z,31.53
2022-08-24T17:08:24.707Z,31.45
2022-08-24T17:10:56.152Z,31.34
2022-08-24T17:16:18.652Z,31.20
2022-08-24T17:18:49.373Z,31.13
2022-08-24T17:21:18.281Z,31.06
2022-08-24T17:23:49.448Z,30.99
2022-08-24T17:26:21.460Z,30.95
2022-08-24T17:28:54.688Z,30.91
2022-08-24T17:31:24.886Z,30.87
2022-08-24T17:33:54.614Z,30.83
2022-08-24T17:36:25.035Z,30.80
2022-08-24T17:38:56.351Z,30.78
2022-08-24T17:41:26.648Z,30.76
2022-08-24T17:44:02.216Z,30.74
2022-08-24T17:46:31.815Z,30.71
2022-08-24T17:49:06.302Z,30.70
2022-08-24T17:51:41.523Z,30.64
2022-08-24T17:54:10.377Z,30.62
2022-08-24T17:56:42.694Z,30.61
2022-08-24T17:59:26.410Z,30.60
2022-08-24T18:02:02.563Z,30.56
2022-08-24T18:04:43.991Z,30.55
2022-08-24T18:07:22.179Z,30.51
2022-08-24T18:10:15.540Z,30.47
2022-08-24T18:12:44.360Z,30.47
2022-08-24T18:15:35.448Z,30.45
2022-08-24T18:18:09.944Z,30.41
2022-08-24T18:20:43.607Z,30.33
2022-08-24T18:23:15.051Z,30.16
2022-08-24T18:25:53.829Z,29.91
2022-08-24T18:28:24.300Z,29.80
2022-08-24T18:30:55.674Z,29.67
2022-08-24T18:33:27.760Z,29.59
2022-08-24T18:36:04.157Z,29.51
2022-08-24T18:38:35.408Z,29.36
2022-08-24T18:41:04.753Z,29.27
2022-08-24T18:43:35.777Z,29.17
2022-08-24T18:46:07.103Z,29.13
2022-08-24T18:48:38.991Z,29.13
2022-08-24T18:51:10.385Z,29.13
2022-08-24T18:53:40.386Z,29.10
2022-08-24T18:56:12.657Z,29.06
2022-08-24T18:58:47.398Z,29.21
2022-08-24T19:01:18.950Z,29.03
2022-08-24T19:03:47.324Z,28.96
2022-08-24T19:06:23.208Z,28.92
2022-08-24T19:08:53.332Z,28.88
2022-08-24T19:11:26.000Z,28.83
2022-08-24T19:13:54.789Z,28.81
2022-08-24T19:16:31.167Z,28.74
2022-08-24T19:19:01.536Z,28.69
2022-08-24T19:21:41.829Z,28.67
2022-08-24T19:24:13.376Z,28.56
2022-08-24T19:26:43.667Z,28.55
2022-08-24T19:29:12.809Z,28.53
2022-08-24T19:31:43.783Z,28.51
2022-08-24T19:34:14.349Z,28.46
2022-08-24T19:36:47.638Z,28.43
2022-08-24T19:39:18.577Z,28.42
2022-08-24T19:42:06.355Z,28.45
2022-08-24T19:44:57.715Z,28.47
2022-08-24T19:47:28.492Z,28.51
2022-08-24T19:49:58.811Z,28.57
2022-08-24T19:52:34.753Z,28.60
2022-08-24T19:55:06.535Z,28.58
2022-08-24T19:57:44.904Z,28.61
2022-08-24T20:00:31.783Z,28.59
2022-08-24T20:03:08.703Z,28.52
2022-08-24T20:05:37.942Z,28.46
2022-08-24T20:08:11.442Z,28.46
2022-08-24T20:10:42.375Z,28.45
2022-08-24T20:13:13.381Z,28.48
2022-08-24T20:15:44.704Z,28.42
2022-08-24T20:18:17.835Z,28.40
2022-08-24T20:20:58.076Z,28.40
2022-08-24T20:23:31.282Z,28.36
2022-08-24T20:26:03.990Z,28.34
2022-08-24T20:28:40.525Z,28.36
2022-08-24T20:31:10.637Z,28.41
2022-08-24T20:33:39.128Z,28.41
2022-08-24T20:36:08.310Z,28.38
2022-08-24T20:38:37.581Z,28.43
2022-08-24T20:41:06.069Z,28.42
2022-08-24T20:43:34.354Z,28.38
2022-08-24T20:46:02.794Z,28.39
2022-08-24T20:48:35.995Z,28.37
2022-08-24T20:51:05.726Z,28.35
2022-08-24T20:53:33.923Z,28.37
2022-08-24T20:56:10.217Z,28.38
2022-08-24T20:58:39.584Z,28.32
2022-08-24T21:01:08.354Z,28.33
2022-08-24T21:03:36.822Z,28.31
2022-08-24T21:06:05.891Z,28.27
2022-08-24T21:08:34.121Z,28.25
2022-08-24T21:11:03.843Z,28.25
2022-08-24T21:13:32.126Z,28.22
2022-08-24T21:16:00.871Z,28.22
2022-08-24T21:18:29.278Z,28.13
2022-08-24T21:21:03.701Z,28.04
2022-08-24T21:23:33.232Z,28.01
2022-08-24T21:26:04.425Z,28.06
2022-08-24T21:28:33.374Z,28.09
2022-08-24T21:31:05.285Z,28.11
2022-08-24T21:33:51.340Z,28.09
2022-08-24T21:36:20.543Z,28.06
2022-08-24T21:38:48.489Z,28.04
2022-08-24T21:41:17.916Z,28.05
2022-08-24T21:43:46.043Z,28.02
2022-08-24T21:46:14.586Z,28.01
2022-08-24T21:48:42.845Z,27.99
2022-08-24T21:51:11.290Z,28.01
2022-08-24T21:53:39.541Z,27.99
2022-08-24T21:56:08.152Z,28.00
2022-08-24T21:58:37.662Z,28.02
2022-08-24T22:01:05.864Z,28.04
2022-08-24T22:03:39.793Z,28.03
2022-08-24T22:06:09.286Z,28.02
2022-08-24T22:08:38.919Z,28.01
2022-08-24T22:11:12.789Z,28.02
2022-08-24T22:13:47.186Z,28.03
2022-08-24T22:16:15.743Z,28.00
2022-08-24T22:18:44.116Z,27.98
2022-08-24T22:21:18.114Z,27.97
2022-08-24T22:23:48.104Z,27.96
2022-08-24T22:26:17.733Z,27.97
2022-08-24T22:28:48.987Z,27.98
2022-08-24T22:31:21.233Z,27.98
2022-08-24T22:33:51.661Z,27.95
2022-08-24T22:36:20.894Z,27.93
2022-08-24T22:38:50.903Z,27.92
2022-08-24T22:41:22.339Z,27.91
2022-08-24T22:44:11.987Z,27.94
2022-08-24T22:46:41.661Z,27.89
2022-08-24T22:49:11.966Z,27.89
2022-08-24T22:51:40.871Z,27.88
2022-08-24T22:54:13.190Z,27.89
2022-08-24T22:56:48.107Z,27.87
2022-08-24T22:59:23.550Z,27.87
2022-08-24T23:01:57.368Z,27.86
2022-08-24T23:04:32.251Z,27.83
2022-08-24T23:07:04.224Z,27.82
2022-08-24T23:09:36.633Z,27.81
2022-08-24T23:12:23.746Z,27.80
2022-08-24T23:14:55.000Z,27.80
2022-08-24T23:17:36.746Z,27.79
2022-08-24T23:20:09.289Z,27.79
2022-08-24T23:22:43.779Z,27.78
2022-08-24T23:25:15.013Z,27.77
2022-08-24T23:27:46.613Z,27.79
2022-08-24T23:30:22.730Z,27.75
2022-08-24T23:32:52.553Z,27.75
2022-08-24T23:35:21.082Z,27.74
2022-08-24T23:37:49.514Z,27.73
2022-08-24T23:40:20.765Z,27.72
2022-08-24T23:42:50.965Z,27.70
2022-08-24T23:45:28.273Z,27.69
2022-08-24T23:48:00.342Z,27.67
2022-08-24T23:50:33.216Z,27.66
2022-08-24T23:53:04.017Z,27.68
2022-08-24T23:55:33.814Z,27.67
2022-08-24T23:58:04.677Z,27.69
